createdAt,value
2017-11-29T00:00:03.562Z,972.76
2017-11-29T00:01:13.307Z,972.71
2017-11-29T00:02:23.343Z,972.77
2017-11-29T00:03:33.365Z,972.75
2017-11-29T00:04:42.830Z,972.78
2017-11-29T00:05:52.873Z,972.78
2017-11-29T00:07:02.892Z,972.83
2017-11-29T00:08:12.901Z,972.83
2017-11-29T00:09:22.905Z,972.8
2017-11-29T00:10:32.936Z,972.88
2017-11-29T00:11:42.957Z,972.82
2017-11-29T00:12:52.972Z,972.89
2017-11-29T00:14:02.972Z,972.89
2017-11-29T00:15:12.979Z,972.83
2017-11-29T00:16:22.991Z,972.89
2017-11-29T00:17:33.002Z,972.85
2017-11-29T00:18:43.008Z,972.71
2017-11-29T00:19:52.489Z,972.86
2017-11-29T00:21:02.493Z,972.89
2017-11-29T00:22:11.964Z,972.83
2017-11-29T00:23:21.977Z,972.77
2017-11-29T00:24:31.992Z,972.85
2017-11-29T00:25:42.007Z,972.89
2017-11-29T00:26:51.749Z,972.85
2017-11-29T00:28:01.763Z,972.75
2017-11-29T00:29:11.503Z,972.78
2017-11-29T00:30:21.275Z,972.79
2017-11-29T00:31:31.280Z,972.82
2017-11-29T00:32:41.282Z,972.85
2017-11-29T00:33:51.024Z,972.85
2017-11-29T00:35:00.761Z,972.88
2017-11-29T00:36:10.764Z,972.92
2017-11-29T00:37:20.827Z,972.87
2017-11-29T00:38:30.844Z,972.86
2017-11-29T00:39:40.577Z,972.81
2017-11-29T00:40:50.311Z,972.83
2017-11-29T00:42:00.332Z,972.85
2017-11-29T00:43:10.336Z,972.84
2017-11-29T00:44:20.348Z,972.81
2017-11-29T00:45:30.361Z,972.79
2017-11-29T00:46:40.364Z,972.72
2017-11-29T00:47:50.101Z,972.83
2017-11-29T00:48:59.835Z,972.86
2017-11-29T00:50:09.842Z,972.87
2017-11-29T00:51:19.310Z,972.89
2017-11-29T00:52:29.319Z,972.89
2017-11-29T00:53:39.328Z,972.96
2017-11-29T00:54:49.328Z,972.96
2017-11-29T00:55:59.342Z,972.93
2017-11-29T00:57:09.083Z,972.88
2017-11-29T00:58:19.092Z,972.93
2017-11-29T00:59:29.095Z,972.84
2017-11-29T01:00:39.113Z,972.84
2017-11-29T01:01:49.144Z,972.87
2017-11-29T01:02:58.883Z,972.88
2017-11-29T01:04:08.885Z,972.88
2017-11-29T01:05:18.622Z,972.87
2017-11-29T01:06:28.637Z,972.8
2017-11-29T01:07:38.659Z,972.85
2017-11-29T01:08:48.681Z,972.8
2017-11-29T01:09:58.696Z,972.82
2017-11-29T01:11:08.171Z,972.82
2017-11-29T01:12:18.214Z,972.84
2017-11-29T01:13:28.230Z,972.79
2017-11-29T01:14:38.236Z,972.82
2017-11-29T01:15:48.241Z,972.88
2017-11-29T01:16:57.975Z,972.82
2017-11-29T01:18:07.992Z,972.89
2017-11-29T01:19:18.000Z,972.88
2017-11-29T01:20:28.006Z,972.85
2017-11-29T01:21:38.014Z,972.7
2017-11-29T01:22:48.023Z,972.86
2017-11-29T01:23:57.762Z,972.86
2017-11-29T01:25:07.494Z,972.82
2017-11-29T01:26:17.505Z,972.91
2017-11-29T01:27:27.513Z,972.94
2017-11-29T01:28:37.513Z,972.9
2017-11-29T01:29:47.567Z,972.92
2017-11-29T01:30:57.303Z,972.9
2017-11-29T01:32:07.321Z,972.9
2017-11-29T01:33:17.064Z,972.9
2017-11-29T01:34:27.073Z,972.85
2017-11-29T01:35:36.808Z,972.86
2017-11-29T01:36:46.541Z,972.86
2017-11-29T01:37:56.275Z,972.83
2017-11-29T01:39:05.740Z,972.78
2017-11-29T01:40:15.753Z,972.75
2017-11-29T01:41:25.761Z,972.74
2017-11-29T01:42:35.769Z,972.78
2017-11-29T01:43:45.769Z,972.78
2017-11-29T01:44:55.794Z,972.72
2017-11-29T01:46:05.527Z,972.67
2017-11-29T01:47:15.263Z,972.71
2017-11-29T01:48:25.003Z,972.65
2017-11-29T01:49:34.743Z,972.75
2017-11-29T01:50:44.755Z,972.7
2017-11-29T01:51:54.810Z,972.61
2017-11-29T01:53:04.283Z,972.7
2017-11-29T01:54:14.282Z,972.65
2017-11-29T01:55:24.293Z,972.68
2017-11-29T01:56:34.294Z,972.63
2017-11-29T01:57:44.302Z,972.69
2017-11-29T01:58:54.300Z,972.72
2017-11-29T02:00:04.308Z,972.7
2017-11-29T02:01:14.319Z,972.75
2017-11-29T02:02:24.055Z,972.7
2017-11-29T02:03:34.070Z,972.65
2017-11-29T02:04:44.086Z,972.68
2017-11-29T02:05:54.088Z,972.67
2017-11-29T02:07:03.820Z,972.66
2017-11-29T02:08:13.563Z,972.69
2017-11-29T02:09:23.567Z,972.7
2017-11-29T02:10:33.588Z,972.68
2017-11-29T02:11:43.052Z,972.7
2017-11-29T02:12:53.069Z,972.64
2017-11-29T02:14:03.073Z,972.65
2017-11-29T02:15:13.083Z,972.69
2017-11-29T02:16:22.821Z,972.72
2017-11-29T02:17:32.282Z,972.68
2017-11-29T02:18:42.286Z,972.69
2017-11-29T02:19:52.309Z,972.69
2017-11-29T02:21:02.061Z,972.63
2017-11-29T02:22:11.796Z,972.7
2017-11-29T02:23:21.804Z,972.66
2017-11-29T02:24:31.814Z,972.68
2017-11-29T02:25:41.818Z,972.66
2017-11-29T02:26:51.559Z,972.62
2017-11-29T02:28:01.289Z,972.64
2017-11-29T02:29:11.294Z,972.62
2017-11-29T02:30:21.309Z,972.6
2017-11-29T02:31:31.340Z,972.63
2017-11-29T02:32:41.354Z,972.61
2017-11-29T02:33:51.376Z,972.58
2017-11-29T02:35:01.380Z,972.57
2017-11-29T02:36:11.392Z,972.53
2017-11-29T02:37:21.402Z,972.58
2017-11-29T02:38:31.432Z,972.59
2017-11-29T02:39:40.919Z,972.59
2017-11-29T02:40:50.964Z,972.62
2017-11-29T02:42:00.701Z,972.58
2017-11-29T02:43:10.480Z,972.6
2017-11-29T02:44:20.480Z,972.51
2017-11-29T02:45:30.506Z,972.63
2017-11-29T02:46:40.251Z,972.59
2017-11-29T02:47:50.002Z,972.56
2017-11-29T02:48:59.758Z,972.62
2017-11-29T02:50:09.770Z,972.59
2017-11-29T02:51:19.782Z,972.58
2017-11-29T02:52:29.524Z,972.58
2017-11-29T02:53:39.544Z,972.6
2017-11-29T02:54:49.552Z,972.59
2017-11-29T02:55:59.292Z,972.58
2017-11-29T02:57:09.313Z,972.6
2017-11-29T02:58:19.316Z,972.61
2017-11-29T02:59:29.322Z,972.55
2017-11-29T03:00:39.057Z,972.63
2017-11-29T03:01:48.521Z,972.62
2017-11-29T03:02:58.253Z,972.55
2017-11-29T03:04:08.253Z,972.55
2017-11-29T03:05:18.255Z,972.58
2017-11-29T03:06:28.256Z,972.55
2017-11-29T03:07:38.274Z,972.56
2017-11-29T03:08:47.737Z,972.58
2017-11-29T03:09:57.740Z,972.55
2017-11-29T03:11:07.750Z,972.6
2017-11-29T03:12:17.497Z,972.57
2017-11-29T03:13:27.529Z,972.61
2017-11-29T03:14:37.533Z,972.66
2017-11-29T03:15:47.558Z,972.61
2017-11-29T03:16:57.569Z,972.59
2017-11-29T03:18:07.578Z,972.61
2017-11-29T03:19:17.582Z,972.6
2017-11-29T03:20:27.585Z,972.61
2017-11-29T03:21:37.620Z,972.64
2017-11-29T03:22:47.640Z,972.62
2017-11-29T03:23:57.383Z,972.64
2017-11-29T03:25:07.392Z,972.58
2017-11-29T03:26:17.417Z,972.6
2017-11-29T03:27:27.441Z,972.65
2017-11-29T03:28:37.500Z,972.61
2017-11-29T03:29:47.238Z,972.58
2017-11-29T03:30:57.244Z,972.55
2017-11-29T03:32:07.316Z,972.67
2017-11-29T03:33:17.053Z,972.61
2017-11-29T03:34:27.073Z,972.62
2017-11-29T03:35:37.079Z,972.64
2017-11-29T03:36:47.086Z,972.64
2017-11-29T03:37:57.089Z,972.58
2017-11-29T03:39:07.090Z,972.65
2017-11-29T03:40:17.101Z,972.63
2017-11-29T03:41:27.106Z,972.63
2017-11-29T03:42:37.117Z,972.49
2017-11-29T03:43:46.868Z,972.57
2017-11-29T03:44:56.869Z,972.58
2017-11-29T03:46:06.887Z,972.54
2017-11-29T03:47:16.620Z,972.49
2017-11-29T03:48:26.632Z,972.56
2017-11-29T03:49:36.375Z,972.41
2017-11-29T03:50:46.411Z,972.45
2017-11-29T03:51:56.413Z,972.51
2017-11-29T03:53:06.424Z,972.52
2017-11-29T03:54:16.433Z,972.58
2017-11-29T03:55:26.446Z,972.45
2017-11-29T03:56:36.451Z,972.62
2017-11-29T03:57:46.461Z,972.58
2017-11-29T03:58:56.467Z,972.56
2017-11-29T04:00:06.200Z,972.56
2017-11-29T04:04:03.072Z,972.6
2017-11-29T04:05:13.091Z,972.57
2017-11-29T04:06:23.093Z,972.57
2017-11-29T04:07:32.834Z,972.48
2017-11-29T04:08:42.835Z,972.52
2017-11-29T04:09:54.874Z,972.57
2017-11-29T04:11:04.607Z,972.58
2017-11-29T04:12:14.630Z,972.61
2017-11-29T04:13:24.365Z,972.62
2017-11-29T04:14:34.373Z,972.6
2017-11-29T04:15:44.403Z,972.59
2017-11-29T04:16:54.137Z,972.57
2017-11-29T04:18:04.160Z,972.55
2017-11-29T04:19:14.164Z,972.54
2017-11-29T04:20:23.648Z,972.59
2017-11-29T04:21:33.656Z,972.58
2017-11-29T04:22:43.665Z,972.54
2017-11-29T04:23:53.669Z,972.55
2017-11-29T04:25:03.413Z,972.58
2017-11-29T04:26:13.421Z,972.59
2017-11-29T04:27:23.424Z,972.58
2017-11-29T04:28:33.158Z,972.51
2017-11-29T04:29:43.166Z,972.47
2017-11-29T04:30:52.894Z,972.57
2017-11-29T04:32:02.624Z,972.5
2017-11-29T04:33:12.637Z,972.5
2017-11-29T04:34:22.377Z,972.52
2017-11-29T04:35:32.385Z,972.45
2017-11-29T04:36:42.131Z,972.52
2017-11-29T04:37:52.145Z,972.43
2017-11-29T04:39:04.154Z,972.38
2017-11-29T04:40:14.163Z,972.47
2017-11-29T04:41:24.190Z,972.49
2017-11-29T04:42:34.219Z,972.45
2017-11-29T04:43:44.245Z,972.52
2017-11-29T04:44:54.012Z,972.49
2017-11-29T04:46:03.761Z,972.38
2017-11-29T04:47:13.774Z,972.52
2017-11-29T04:48:23.517Z,972.49
2017-11-29T04:49:33.518Z,972.46
2017-11-29T04:50:43.530Z,972.53
2017-11-29T04:51:53.543Z,972.47
2017-11-29T04:53:03.566Z,972.39
2017-11-29T04:54:13.573Z,972.48
2017-11-29T04:55:23.602Z,972.39
2017-11-29T04:56:33.621Z,972.46
2017-11-29T04:57:43.373Z,972.43
2017-11-29T04:58:53.386Z,972.36
2017-11-29T05:00:03.390Z,972.46
2017-11-29T05:01:12.850Z,972.39
2017-11-29T05:02:22.856Z,972.39
2017-11-29T05:03:32.862Z,972.41
2017-11-29T05:04:42.868Z,972.39
2017-11-29T05:05:52.874Z,972.37
2017-11-29T05:07:02.883Z,972.39
2017-11-29T05:08:12.893Z,972.4
2017-11-29T05:09:22.894Z,972.35
2017-11-29T05:10:32.903Z,972.33
2017-11-29T05:11:42.904Z,972.39
2017-11-29T05:12:52.902Z,972.35
2017-11-29T05:14:02.910Z,972.35
2017-11-29T05:15:12.912Z,972.4
2017-11-29T05:16:22.650Z,972.48
2017-11-29T05:17:32.653Z,972.42
2017-11-29T05:18:42.661Z,972.37
2017-11-29T05:19:52.662Z,972.32
2017-11-29T05:21:02.670Z,972.38
2017-11-29T05:22:12.671Z,972.39
2017-11-29T05:23:22.678Z,972.39
2017-11-29T05:24:32.685Z,972.49
2017-11-29T05:25:42.420Z,972.46
2017-11-29T05:26:52.433Z,972.49
2017-11-29T05:28:02.434Z,972.46
2017-11-29T05:29:12.196Z,972.42
2017-11-29T05:30:22.201Z,972.43
2017-11-29T05:31:32.207Z,972.33
2017-11-29T05:32:42.212Z,972.43
2017-11-29T05:33:51.953Z,972.47
2017-11-29T05:35:01.977Z,972.47
2017-11-29T05:36:11.709Z,972.44
2017-11-29T05:37:21.713Z,972.54
2017-11-29T05:38:31.726Z,972.49
2017-11-29T05:39:41.728Z,972.4
2017-11-29T05:40:51.748Z,972.43
2017-11-29T05:42:01.758Z,972.48
2017-11-29T05:43:11.768Z,972.51
2017-11-29T05:44:21.778Z,972.5
2017-11-29T05:45:31.511Z,972.46
2017-11-29T05:46:41.522Z,972.5
2017-11-29T05:47:51.544Z,972.5
2017-11-29T05:49:01.293Z,972.44
2017-11-29T05:50:11.357Z,972.44
2017-11-29T05:51:21.375Z,972.56
2017-11-29T05:52:31.381Z,972.55
2017-11-29T05:53:41.115Z,972.39
2017-11-29T05:54:51.124Z,972.53
2017-11-29T05:56:01.146Z,972.56
2017-11-29T05:57:11.178Z,972.48
2017-11-29T05:58:20.912Z,972.51
2017-11-29T05:59:30.925Z,972.52
2017-11-29T06:00:40.928Z,972.57
2017-11-29T06:01:50.980Z,972.49
2017-11-29T06:03:00.711Z,972.51
2017-11-29T06:04:10.721Z,972.44
2017-11-29T06:05:20.730Z,972.44
2017-11-29T06:06:30.474Z,972.43
2017-11-29T06:07:40.479Z,972.45
2017-11-29T06:08:50.481Z,972.45
2017-11-29T06:10:00.494Z,972.44
2017-11-29T06:11:10.234Z,972.5
2017-11-29T06:12:20.263Z,972.44
2017-11-29T06:13:29.994Z,972.32
2017-11-29T06:14:39.994Z,972.46
2017-11-29T06:15:49.732Z,972.48
2017-11-29T06:16:59.479Z,972.51
2017-11-29T06:18:09.489Z,972.52
2017-11-29T06:19:19.234Z,972.53
2017-11-29T06:20:29.231Z,972.38
2017-11-29T06:21:39.004Z,972.51
2017-11-29T06:22:49.025Z,972.42
2017-11-29T06:23:59.042Z,972.38
2017-11-29T06:25:08.774Z,972.32
2017-11-29T06:26:18.780Z,972.47
2017-11-29T06:27:28.784Z,972.33
2017-11-29T06:28:38.795Z,972.48
2017-11-29T06:29:48.829Z,972.38
2017-11-29T06:30:58.839Z,972.36
2017-11-29T06:32:08.885Z,972.36
2017-11-29T06:33:18.631Z,972.39
2017-11-29T06:34:28.671Z,972.38
2017-11-29T06:35:38.681Z,972.33
2017-11-29T06:36:48.410Z,972.41
2017-11-29T06:37:58.421Z,972.45
2017-11-29T06:39:08.427Z,972.29
2017-11-29T06:40:18.433Z,972.39
2017-11-29T06:41:28.452Z,972.43
2017-11-29T06:42:38.476Z,972.42
2017-11-29T06:43:48.489Z,972.42
2017-11-29T06:44:58.511Z,972.5
2017-11-29T06:46:08.513Z,972.44
2017-11-29T06:47:18.530Z,972.45
2017-11-29T06:48:28.556Z,972.59
2017-11-29T06:49:38.596Z,972.55
2017-11-29T06:50:48.606Z,972.57
2017-11-29T06:51:58.614Z,972.53
2017-11-29T06:53:08.613Z,972.54
2017-11-29T06:54:18.621Z,972.53
2017-11-29T06:55:28.635Z,972.6
2017-11-29T06:56:38.637Z,972.47
2017-11-29T06:57:48.655Z,972.61
2017-11-29T06:58:58.669Z,972.52
2017-11-29T07:00:08.674Z,972.61
2017-11-29T07:01:18.440Z,972.62
2017-11-29T07:02:28.445Z,972.6
2017-11-29T07:03:38.176Z,972.55
2017-11-29T07:04:48.181Z,972.64
2017-11-29T07:05:57.919Z,972.6
2017-11-29T07:07:07.931Z,972.54
2017-11-29T07:08:17.945Z,972.58
2017-11-29T07:09:27.999Z,972.63
2017-11-29T07:10:37.738Z,972.6
2017-11-29T07:11:47.761Z,972.59
2017-11-29T07:12:57.775Z,972.53
2017-11-29T07:14:07.785Z,972.54
2017-11-29T07:15:17.783Z,972.58
2017-11-29T07:16:28.173Z,972.5
2017-11-29T07:17:38.181Z,972.6
2017-11-29T07:18:48.232Z,972.6
2017-11-29T07:19:58.247Z,972.44
2017-11-29T07:21:08.024Z,972.52
2017-11-29T07:22:17.485Z,972.49
2017-11-29T07:23:27.496Z,972.54
2017-11-29T07:24:37.498Z,972.54
2017-11-29T07:25:47.231Z,972.55
2017-11-29T07:26:57.245Z,972.51
2017-11-29T07:28:07.006Z,972.63
2017-11-29T07:29:17.016Z,972.65
2017-11-29T07:30:27.033Z,972.59
2017-11-29T07:31:36.781Z,972.61
2017-11-29T07:32:46.811Z,972.64
2017-11-29T07:33:56.549Z,972.58
2017-11-29T07:35:06.557Z,972.62
2017-11-29T07:36:16.559Z,972.54
2017-11-29T07:37:26.298Z,972.59
2017-11-29T07:38:36.321Z,972.62
2017-11-29T07:39:46.344Z,972.6
2017-11-29T07:40:56.371Z,972.61
2017-11-29T07:42:06.374Z,972.56
2017-11-29T07:43:16.116Z,972.6
2017-11-29T07:44:26.127Z,972.61
2017-11-29T07:45:36.128Z,972.67
2017-11-29T07:46:46.137Z,972.6
2017-11-29T07:47:55.883Z,972.65
2017-11-29T07:49:05.614Z,972.63
2017-11-29T07:50:15.623Z,972.74
2017-11-29T07:51:25.718Z,972.71
2017-11-29T07:52:35.903Z,972.72
2017-11-29T07:53:45.906Z,972.65
2017-11-29T07:54:55.744Z,972.73
2017-11-29T07:56:05.489Z,972.84
2017-11-29T07:57:15.498Z,972.69
2017-11-29T07:58:25.520Z,972.79
2017-11-29T07:59:35.530Z,972.79
2017-11-29T08:00:45.535Z,972.77
2017-11-29T08:01:55.544Z,972.78
2017-11-29T08:03:05.560Z,972.76
2017-11-29T08:04:15.602Z,972.78
2017-11-29T08:05:25.611Z,972.71
2017-11-29T08:06:35.616Z,972.74
2017-11-29T08:07:45.619Z,972.71
2017-11-29T08:08:55.353Z,972.75
2017-11-29T08:10:05.369Z,972.75
2017-11-29T08:11:15.123Z,972.72
2017-11-29T08:12:25.131Z,972.76
2017-11-29T08:13:34.596Z,972.71
2017-11-29T08:14:44.055Z,972.77
2017-11-29T08:15:54.059Z,972.64
2017-11-29T08:17:04.073Z,972.69
2017-11-29T08:18:13.820Z,972.81
2017-11-29T08:19:23.829Z,972.77
2017-11-29T08:20:33.591Z,972.76
2017-11-29T08:21:43.605Z,972.85
2017-11-29T08:22:53.617Z,972.79
2017-11-29T08:24:03.629Z,972.85
2017-11-29T08:25:13.660Z,972.79
2017-11-29T08:26:23.689Z,972.85
2017-11-29T08:27:33.709Z,972.85
2017-11-29T08:28:43.716Z,972.92
2017-11-29T08:29:53.723Z,972.85
2017-11-29T08:31:03.467Z,972.92
2017-11-29T08:32:14.479Z,972.96
2017-11-29T08:33:24.493Z,972.82
2017-11-29T08:34:34.494Z,972.87
2017-11-29T08:35:44.500Z,972.91
2017-11-29T08:36:54.264Z,972.95
2017-11-29T08:38:04.279Z,972.95
2017-11-29T08:39:14.013Z,972.8
2017-11-29T08:40:23.747Z,972.94
2017-11-29T08:41:33.755Z,972.88
2017-11-29T08:42:43.791Z,972.98
2017-11-29T08:43:53.809Z,972.96
2017-11-29T08:45:03.819Z,972.88
2017-11-29T08:46:13.636Z,972.88
2017-11-29T08:47:23.108Z,972.89
2017-11-29T08:48:32.841Z,972.97
2017-11-29T08:49:43.172Z,972.84
2017-11-29T08:50:53.178Z,972.99
2017-11-29T08:52:03.255Z,972.97
2017-11-29T08:53:13.270Z,972.94
2017-11-29T08:54:23.273Z,972.87
2017-11-29T08:55:33.316Z,972.94
2017-11-29T08:56:43.353Z,972.87
2017-11-29T08:57:53.357Z,972.87
2017-11-29T08:59:03.392Z,972.97
2017-11-29T09:00:13.394Z,972.72
2017-11-29T09:01:25.396Z,972.88
2017-11-29T09:02:35.414Z,972.93
2017-11-29T09:03:45.424Z,972.81
2017-11-29T09:04:55.427Z,972.9
2017-11-29T09:06:05.184Z,972.87
2017-11-29T09:07:15.784Z,972.77
2017-11-29T09:08:25.794Z,972.87
2017-11-29T09:09:35.822Z,972.68
2017-11-29T09:10:45.612Z,972.84
2017-11-29T09:11:55.393Z,972.86
2017-11-29T09:13:09.141Z,972.76
2017-11-29T09:14:19.140Z,972.94
2017-11-29T09:15:29.159Z,972.67
2017-11-29T09:16:39.172Z,972.9
2017-11-29T09:17:49.178Z,972.8
2017-11-29T09:18:59.178Z,972.76
2017-11-29T09:20:09.180Z,972.75
2017-11-29T09:21:19.207Z,972.91
2017-11-29T09:22:29.231Z,972.76
2017-11-29T09:23:39.249Z,972.91
2017-11-29T09:24:48.994Z,972.89
2017-11-29T09:25:59.021Z,972.89
2017-11-29T09:27:09.059Z,972.62
2017-11-29T09:28:19.064Z,972.86
2017-11-29T09:29:29.080Z,972.78
2017-11-29T09:30:39.629Z,972.79
2017-11-29T09:31:49.640Z,972.79
2017-11-29T09:32:59.104Z,972.81
2017-11-29T09:34:09.115Z,972.85
2017-11-29T09:35:19.119Z,972.9
2017-11-29T09:36:28.852Z,972.77
2017-11-29T09:37:38.864Z,972.76
2017-11-29T09:38:48.873Z,972.79
2017-11-29T09:39:58.877Z,972.83
2017-11-29T09:41:08.614Z,972.7
2017-11-29T09:42:18.618Z,972.84
2017-11-29T09:43:28.632Z,972.92
2017-11-29T09:44:38.099Z,972.81
2017-11-29T09:45:48.112Z,972.74
2017-11-29T09:46:58.131Z,972.85
2017-11-29T09:48:07.867Z,972.82
2017-11-29T09:49:17.595Z,972.67
2017-11-29T09:50:27.602Z,972.74
2017-11-29T09:51:37.626Z,972.77
2017-11-29T09:52:47.373Z,972.81
2017-11-29T09:53:57.387Z,972.78
2017-11-29T09:55:07.127Z,972.78
2017-11-29T09:56:16.860Z,972.68
2017-11-29T09:57:26.883Z,972.69
2017-11-29T09:58:36.641Z,972.62
2017-11-29T09:59:46.684Z,972.6
2017-11-29T10:00:56.741Z,972.66
2017-11-29T10:02:06.749Z,972.57
2017-11-29T10:03:16.748Z,972.61
2017-11-29T10:04:26.755Z,972.7
2017-11-29T10:05:36.513Z,972.74
2017-11-29T10:06:46.516Z,972.78
2017-11-29T10:07:56.258Z,972.72
2017-11-29T10:09:05.447Z,972.62
2017-11-29T10:10:15.457Z,972.7
2017-11-29T10:11:25.515Z,972.64
2017-11-29T10:12:35.517Z,972.74
2017-11-29T10:13:45.256Z,972.66
2017-11-29T10:14:55.261Z,972.6
2017-11-29T10:16:05.000Z,972.63
2017-11-29T10:17:15.009Z,972.65
2017-11-29T10:18:25.018Z,972.66
2017-11-29T10:19:35.019Z,972.72
2017-11-29T10:20:44.757Z,972.63
2017-11-29T10:21:54.765Z,972.62
2017-11-29T10:23:04.513Z,972.71
2017-11-29T10:24:13.977Z,972.52
2017-11-29T10:25:23.704Z,972.67
2017-11-29T10:26:33.734Z,972.69
2017-11-29T10:27:43.752Z,972.69
2017-11-29T10:28:53.769Z,972.63
2017-11-29T10:30:03.788Z,972.54
2017-11-29T10:31:12.977Z,972.69
2017-11-29T10:32:23.012Z,972.59
2017-11-29T10:33:32.745Z,972.51
2017-11-29T10:34:42.782Z,972.57
2017-11-29T10:35:52.802Z,972.53
2017-11-29T10:37:02.855Z,972.52
2017-11-29T10:38:12.866Z,972.49
2017-11-29T10:39:22.597Z,972.59
2017-11-29T10:40:32.603Z,972.51
2017-11-29T10:41:42.612Z,972.4
2017-11-29T10:42:52.627Z,972.48
2017-11-29T10:44:02.632Z,972.44
2017-11-29T10:45:12.632Z,972.42
2017-11-29T10:46:22.638Z,972.43
2017-11-29T10:47:32.655Z,972.42
2017-11-29T10:48:42.665Z,972.38
2017-11-29T10:49:52.678Z,972.3
2017-11-29T10:51:02.679Z,972.38
2017-11-29T10:52:12.693Z,972.35
2017-11-29T10:53:22.435Z,972.38
2017-11-29T10:54:32.443Z,972.25
2017-11-29T10:55:42.177Z,972.33
2017-11-29T10:56:52.178Z,972.42
2017-11-29T10:58:02.059Z,972.27
2017-11-29T10:59:11.871Z,972.2
2017-11-29T11:00:21.870Z,972.38
2017-11-29T11:01:31.874Z,972.39
2017-11-29T11:02:41.878Z,972.29
2017-11-29T11:03:51.895Z,972.41
2017-11-29T11:05:01.640Z,972.25
2017-11-29T11:06:11.643Z,972.36
2017-11-29T11:07:21.378Z,972.35
2017-11-29T11:08:31.381Z,972.39
2017-11-29T11:09:41.388Z,972.33
2017-11-29T11:10:51.137Z,972.31
2017-11-29T11:12:00.881Z,972.31
2017-11-29T11:13:10.611Z,972.32
2017-11-29T11:14:20.345Z,972.25
2017-11-29T11:15:30.354Z,972.32
2017-11-29T11:16:40.361Z,972.31
2017-11-29T11:17:50.373Z,972.38
2017-11-29T11:19:00.382Z,972.31
2017-11-29T11:20:10.395Z,972.32
2017-11-29T11:21:20.397Z,972.25
2017-11-29T11:22:29.870Z,972.14
2017-11-29T11:23:39.879Z,972.15
2017-11-29T11:24:49.617Z,972.13
2017-11-29T11:25:59.353Z,972.19
2017-11-29T11:27:09.365Z,972.17
2017-11-29T11:28:19.145Z,972.23
2017-11-29T11:29:29.163Z,972.18
2017-11-29T11:30:39.164Z,972.1
2017-11-29T11:31:49.188Z,972.13
2017-11-29T11:32:59.207Z,972.13
2017-11-29T11:34:08.684Z,972.09
2017-11-29T11:35:18.705Z,972.07
2017-11-29T11:36:28.185Z,972.06
2017-11-29T11:37:37.925Z,972.13
2017-11-29T11:38:48.283Z,972.15
2017-11-29T11:39:58.320Z,972.05
2017-11-29T11:41:08.057Z,972.06
2017-11-29T11:42:17.806Z,972.08
2017-11-29T11:43:27.824Z,972.04
2017-11-29T11:44:37.561Z,972.03
2017-11-29T11:45:47.567Z,972.02
2017-11-29T11:46:57.570Z,971.85
2017-11-29T11:48:07.345Z,971.95
2017-11-29T11:49:17.353Z,972.03
2017-11-29T11:50:27.103Z,971.99
2017-11-29T11:51:36.841Z,971.99
2017-11-29T11:52:46.843Z,971.96
2017-11-29T11:53:56.575Z,971.95
2017-11-29T11:55:06.615Z,971.97
2017-11-29T11:56:16.663Z,971.9
2017-11-29T11:57:26.400Z,971.94
2017-11-29T11:58:36.411Z,971.85
2017-11-29T11:59:46.411Z,971.9
2017-11-29T12:00:56.193Z,971.93
2017-11-29T12:02:06.207Z,971.93
2017-11-29T12:03:15.937Z,971.89
2017-11-29T12:04:25.951Z,971.9
2017-11-29T12:05:35.683Z,971.84
2017-11-29T12:06:45.427Z,971.89
2017-11-29T12:07:55.186Z,971.89
2017-11-29T12:09:05.218Z,971.9
2017-11-29T12:10:15.224Z,971.85
2017-11-29T12:11:25.238Z,971.82
2017-11-29T12:12:35.245Z,971.85
2017-11-29T12:13:45.269Z,971.71
2017-11-29T12:14:55.274Z,971.84
2017-11-29T12:16:05.280Z,971.74
2017-11-29T12:17:15.292Z,971.81
2017-11-29T12:18:25.304Z,971.82
2017-11-29T12:19:35.320Z,971.78
2017-11-29T12:20:45.330Z,971.83
2017-11-29T12:21:55.346Z,971.84
2017-11-29T12:23:05.361Z,971.67
2017-11-29T12:24:15.366Z,971.78
2017-11-29T12:25:25.383Z,971.76
2017-11-29T12:26:35.425Z,971.74
2017-11-29T12:27:45.176Z,971.74
2017-11-29T12:28:55.189Z,971.77
2017-11-29T12:30:04.937Z,971.7
2017-11-29T12:31:14.669Z,971.71
2017-11-29T12:32:24.679Z,971.77
2017-11-29T12:33:34.688Z,971.66
2017-11-29T12:34:44.156Z,971.72
2017-11-29T12:35:53.895Z,971.67
2017-11-29T12:37:03.908Z,971.72
2017-11-29T12:38:13.653Z,971.68
2017-11-29T12:39:23.669Z,971.69
2017-11-29T12:40:33.667Z,971.73
2017-11-29T12:41:43.129Z,971.63
2017-11-29T12:42:53.141Z,971.74
2017-11-29T12:44:03.171Z,971.78
2017-11-29T12:45:13.189Z,971.7
2017-11-29T12:46:22.931Z,971.82
2017-11-29T12:47:32.934Z,971.78
2017-11-29T12:48:42.938Z,971.84
2017-11-29T12:49:52.941Z,971.72
2017-11-29T12:51:02.957Z,971.74
2017-11-29T12:52:12.971Z,971.76
2017-11-29T12:53:22.981Z,971.69
2017-11-29T12:54:32.991Z,971.81
2017-11-29T12:55:43.003Z,971.72
2017-11-29T12:56:52.472Z,971.76
2017-11-29T12:58:02.479Z,971.74
2017-11-29T12:59:12.229Z,971.8
2017-11-29T13:00:22.248Z,971.67
2017-11-29T13:01:31.986Z,971.65
2017-11-29T13:02:41.733Z,971.77
2017-11-29T13:03:51.734Z,971.84
2017-11-29T13:05:01.734Z,971.76
2017-11-29T13:06:11.739Z,971.83
2017-11-29T13:07:21.749Z,971.82
2017-11-29T13:08:31.494Z,971.86
2017-11-29T13:09:41.500Z,971.87
2017-11-29T13:10:51.229Z,971.91
2017-11-29T13:12:00.966Z,971.84
2017-11-29T13:13:10.969Z,971.9
2017-11-29T13:14:20.975Z,971.84
2017-11-29T13:15:30.981Z,971.97
2017-11-29T13:16:40.715Z,971.92
2017-11-29T13:17:50.473Z,971.93
2017-11-29T13:19:00.485Z,971.9
2017-11-29T13:20:10.503Z,971.92
2017-11-29T13:21:20.267Z,971.9
2017-11-29T13:22:30.287Z,971.91
2017-11-29T13:23:40.587Z,971.86
2017-11-29T13:24:50.617Z,971.85
2017-11-29T13:26:00.634Z,971.88
2017-11-29T13:27:10.640Z,971.76
2017-11-29T13:28:20.638Z,971.81
2017-11-29T13:29:30.666Z,971.8
2017-11-29T13:30:40.667Z,971.84
2017-11-29T13:31:50.405Z,971.8
2017-11-29T13:33:00.415Z,971.83
2017-11-29T13:34:09.875Z,971.77
2017-11-29T13:35:19.612Z,971.85
2017-11-29T13:36:29.371Z,971.86
2017-11-29T13:37:39.117Z,971.85
2017-11-29T13:38:49.142Z,971.86
2017-11-29T13:39:59.146Z,971.92
2017-11-29T13:41:08.893Z,971.87
2017-11-29T13:42:18.911Z,971.85
2017-11-29T13:43:28.647Z,971.85
2017-11-29T13:44:38.381Z,971.85
2017-11-29T13:45:48.414Z,971.86
2017-11-29T13:46:58.722Z,971.89
2017-11-29T13:48:08.734Z,971.9
2017-11-29T13:49:18.197Z,971.9
2017-11-29T13:50:27.970Z,971.88
2017-11-29T13:51:37.721Z,971.87
2017-11-29T13:52:47.751Z,971.86
2017-11-29T13:53:57.525Z,971.81
2017-11-29T13:55:07.536Z,971.89
2017-11-29T13:56:17.562Z,971.85
2017-11-29T13:57:27.566Z,971.88
2017-11-29T13:58:37.578Z,971.89
2017-11-29T13:59:47.334Z,971.86
2017-11-29T14:00:57.344Z,971.9
2017-11-29T14:02:07.365Z,971.79
2017-11-29T14:03:16.827Z,971.78
2017-11-29T14:04:26.836Z,971.78
2017-11-29T14:05:36.861Z,971.72
2017-11-29T14:06:46.867Z,971.74
2017-11-29T14:07:56.868Z,971.76
2017-11-29T14:09:06.873Z,971.74
2017-11-29T14:10:16.896Z,971.78
2017-11-29T14:11:26.901Z,971.77
2017-11-29T14:12:36.905Z,971.72
2017-11-29T14:13:46.916Z,971.68
2017-11-29T14:14:56.920Z,971.76
2017-11-29T14:16:06.931Z,971.74
2017-11-29T14:17:16.966Z,971.79
2017-11-29T14:18:26.967Z,971.74
2017-11-29T14:19:36.981Z,971.71
2017-11-29T14:20:47.025Z,971.69
2017-11-29T14:21:56.502Z,971.73
2017-11-29T14:23:06.507Z,971.75
2017-11-29T14:24:16.512Z,971.74
2017-11-29T14:25:26.291Z,971.68
2017-11-29T14:26:36.317Z,971.72
2017-11-29T14:27:46.797Z,971.71
2017-11-29T14:28:56.821Z,971.75
2017-11-29T14:30:06.833Z,971.7
2017-11-29T14:31:16.574Z,971.69
2017-11-29T14:32:26.317Z,971.73
2017-11-29T14:33:40.254Z,971.68
2017-11-29T14:34:50.270Z,971.67
2017-11-29T14:36:00.286Z,971.68
2017-11-29T14:37:10.318Z,971.64